sensor_id;sensor_type;location;lat;lon;timestamp;P1;durP1;ratioP1;P2;durP2;ratioP2
73678;SDS011;61978;52.742;16.962;2023-07-30T00:01:47;19.20;;;9.60;;
73678;SDS011;61978;52.742;16.962;2023-07-30T00:04:14;21.30;;;10.20;;
73678;SDS011;61978;52.742;16.962;2023-07-30T00:06:40;20.40;;;10.20;;
73678;SDS011;61978;52.742;16.962;2023-07-30T00:09:06;23.00;;;8.80;;
73678;SDS011;61978;52.742;16.962;2023-07-30T00:11:32;17.60;;;9.00;;
73678;SDS011;61978;52.742;16.962;2023-07-30T00:13:58;19.80;;;9.20;;
73678;SDS011;61978;52.742;16.962;2023-07-30T00:16:25;17.40;;;9.00;;
73678;SDS011;61978;52.742;16.962;2023-07-30T00:18:53;18.30;;;9.90;;
73678;SDS011;61978;52.742;16.962;2023-07-30T00:21:20;19.80;;;9.60;;
73678;SDS011;61978;52.742;16.962;2023-07-30T00:23:46;19.90;;;8.80;;
73678;SDS011;61978;52.742;16.962;2023-07-30T00:26:12;18.70;;;9.60;;
73678;SDS011;61978;52.742;16.962;2023-07-30T00:28:38;24.20;;;10.40;;
73678;SDS011;61978;52.742;16.962;2023-07-30T00:31:03;21.30;;;10.60;;
73678;SDS011;61978;52.742;16.962;2023-07-30T00:33:29;26.80;;;11.00;;
73678;SDS011;61978;52.742;16.962;2023-07-30T00:35:55;25.90;;;10.90;;
73678;SDS011;61978;52.742;16.962;2023-07-30T00:38:20;19.10;;;11.00;;
73678;SDS011;61978;52.742;16.962;2023-07-30T00:40:46;15.10;;;10.00;;
73678;SDS011;61978;52.742;16.962;2023-07-30T00:43:12;25.10;;;12.30;;
73678;SDS011;61978;52.742;16.962;2023-07-30T00:45:38;25.50;;;10.70;;
73678;SDS011;61978;52.742;16.962;2023-07-30T00:48:05;22.80;;;11.20;;
73678;SDS011;61978;52.742;16.962;2023-07-30T00:50:32;19.70;;;11.60;;
73678;SDS011;61978;52.742;16.962;2023-07-30T00:52:59;24.10;;;12.70;;
73678;SDS011;61978;52.742;16.962;2023-07-30T00:55:26;27.60;;;13.00;;
73678;SDS011;61978;52.742;16.962;2023-07-30T00:57:52;26.00;;;11.90;;
73678;SDS011;61978;52.742;16.962;2023-07-30T01:00:21;21.10;;;11.90;;
73678;SDS011;61978;52.742;16.962;2023-07-30T01:02:51;24.30;;;12.00;;
73678;SDS011;61978;52.742;16.962;2023-07-30T01:05:20;25.40;;;11.90;;
73678;SDS011;61978;52.742;16.962;2023-07-30T01:07:52;24.10;;;11.60;;
73678;SDS011;61978;52.742;16.962;2023-07-30T01:10:23;14.90;;;11.00;;
73678;SDS011;61978;52.742;16.962;2023-07-30T01:12:50;18.30;;;11.50;;
73678;SDS011;61978;52.742;16.962;2023-07-30T01:15:16;27.00;;;12.00;;
73678;SDS011;61978;52.742;16.962;2023-07-30T01:17:42;21.00;;;11.90;;
73678;SDS011;61978;52.742;16.962;2023-07-30T01:20:10;15.80;;;11.10;;
73678;SDS011;61978;52.742;16.962;2023-07-30T01:22:35;22.10;;;11.80;;
73678;SDS011;61978;52.742;16.962;2023-07-30T01:25:01;21.00;;;11.00;;
73678;SDS011;61978;52.742;16.962;2023-07-30T01:27:31;16.60;;;11.20;;
73678;SDS011;61978;52.742;16.962;2023-07-30T01:30:16;15.40;;;10.50;;
73678;SDS011;61978;52.742;16.962;2023-07-30T01:32:44;17.50;;;11.00;;
73678;SDS011;61978;52.742;16.962;2023-07-30T01:35:11;13.90;;;10.30;;
73678;SDS011;61978;52.742;16.962;2023-07-30T01:37:38;16.50;;;11.60;;
73678;SDS011;61978;52.742;16.962;2023-07-30T01:40:06;19.30;;;11.20;;
73678;SDS011;61978;52.742;16.962;2023-07-30T01:42:33;17.30;;;10.90;;
73678;SDS011;61978;52.742;16.962;2023-07-30T01:44:59;16.90;;;11.10;;
73678;SDS011;61978;52.742;16.962;2023-07-30T01:47:26;20.20;;;11.20;;
73678;SDS011;61978;52.742;16.962;2023-07-30T01:49:52;19.90;;;11.90;;
73678;SDS011;61978;52.742;16.962;2023-07-30T01:52:18;14.80;;;11.60;;
73678;SDS011;61978;52.742;16.962;2023-07-30T01:54:44;17.20;;;10.80;;
73678;SDS011;61978;52.742;16.962;2023-07-30T01:57:10;23.30;;;11.70;;
73678;SDS011;61978;52.742;16.962;2023-07-30T01:59:38;19.60;;;12.30;;
73678;SDS011;61978;52.742;16.962;2023-07-30T02:02:05;14.50;;;11.20;;
73678;SDS011;61978;52.742;16.962;2023-07-30T02:04:32;22.60;;;12.40;;
73678;SDS011;61978;52.742;16.962;2023-07-30T02:06:58;13.60;;;11.00;;
73678;SDS011;61978;52.742;16.962;2023-07-30T02:09:26;15.50;;;11.30;;
73678;SDS011;61978;52.742;16.962;2023-07-30T02:11:51;16.20;;;11.20;;
73678;SDS011;61978;52.742;16.962;2023-07-30T02:14:18;20.60;;;10.80;;
73678;SDS011;61978;52.742;16.962;2023-07-30T02:16:44;15.10;;;11.40;;
73678;SDS011;61978;52.742;16.962;2023-07-30T02:19:10;19.80;;;11.10;;
73678;SDS011;61978;52.742;16.962;2023-07-30T02:21:38;18.60;;;9.50;;
73678;SDS011;61978;52.742;16.962;2023-07-30T02:24:08;11.90;;;7.40;;
73678;SDS011;61978;52.742;16.962;2023-07-30T02:26:37;12.40;;;7.30;;
73678;SDS011;61978;52.742;16.962;2023-07-30T02:29:04;9.30;;;7.80;;
73678;SDS011;61978;52.742;16.962;2023-07-30T02:31:31;11.60;;;9.00;;
73678;SDS011;61978;52.742;16.962;2023-07-30T02:33:59;10.30;;;8.70;;
73678;SDS011;61978;52.742;16.962;2023-07-30T02:36:25;11.50;;;8.70;;
73678;SDS011;61978;52.742;16.962;2023-07-30T02:38:51;10.90;;;7.60;;
73678;SDS011;61978;52.742;16.962;2023-07-30T02:41:18;12.10;;;8.20;;
73678;SDS011;61978;52.742;16.962;2023-07-30T02:43:47;9.90;;;7.90;;
73678;SDS011;61978;52.742;16.962;2023-07-30T02:46:24;11.80;;;8.40;;
73678;SDS011;61978;52.742;16.962;2023-07-30T02:49:01;13.30;;;9.00;;
73678;SDS011;61978;52.742;16.962;2023-07-30T02:51:35;12.10;;;9.50;;
73678;SDS011;61978;52.742;16.962;2023-07-30T02:56:26;16.90;;;9.00;;
73678;SDS011;61978;52.742;16.962;2023-07-30T02:58:53;15.70;;;9.40;;
73678;SDS011;61978;52.742;16.962;2023-07-30T03:01:21;16.40;;;8.70;;
73678;SDS011;61978;52.742;16.962;2023-07-30T03:03:51;16.20;;;9.00;;
73678;SDS011;61978;52.742;16.962;2023-07-30T03:06:22;14.70;;;8.60;;
73678;SDS011;61978;52.742;16.962;2023-07-30T03:08:53;12.30;;;9.10;;
73678;SDS011;61978;52.742;16.962;2023-07-30T03:13:51;11.80;;;7.50;;
73678;SDS011;61978;52.742;16.962;2023-07-30T03:16:20;12.10;;;8.20;;
73678;SDS011;61978;52.742;16.962;2023-07-30T03:18:51;11.40;;;7.70;;
73678;SDS011;61978;52.742;16.962;2023-07-30T03:21:21;9.30;;;8.10;;
73678;SDS011;61978;52.742;16.962;2023-07-30T03:23:47;11.70;;;8.20;;
73678;SDS011;61978;52.742;16.962;2023-07-30T03:26:14;15.60;;;7.90;;
73678;SDS011;61978;52.742;16.962;2023-07-30T03:28:40;14.80;;;8.90;;
73678;SDS011;61978;52.742;16.962;2023-07-30T03:31:06;10.10;;;8.60;;
73678;SDS011;61978;52.742;16.962;2023-07-30T03:33:36;14.40;;;9.20;;
73678;SDS011;61978;52.742;16.962;2023-07-30T03:36:05;16.80;;;9.20;;
73678;SDS011;61978;52.742;16.962;2023-07-30T03:38:35;14.80;;;9.10;;
73678;SDS011;61978;52.742;16.962;2023-07-30T03:41:05;17.20;;;9.60;;
73678;SDS011;61978;52.742;16.962;2023-07-30T03:43:36;21.40;;;9.90;;
73678;SDS011;61978;52.742;16.962;2023-07-30T03:46:02;11.70;;;8.90;;
73678;SDS011;61978;52.742;16.962;2023-07-30T03:48:34;21.30;;;9.90;;
73678;SDS011;61978;52.742;16.962;2023-07-30T03:51:13;23.30;;;11.10;;
73678;SDS011;61978;52.742;16.962;2023-07-30T03:53:41;29.20;;;11.30;;
73678;SDS011;61978;52.742;16.962;2023-07-30T03:56:08;47.50;;;15.00;;
73678;SDS011;61978;52.742;16.962;2023-07-30T03:58:34;39.20;;;13.10;;
73678;SDS011;61978;52.742;16.962;2023-07-30T04:01:03;38.30;;;13.70;;
73678;SDS011;61978;52.742;16.962;2023-07-30T04:03:32;35.90;;;14.40;;
73678;SDS011;61978;52.742;16.962;2023-07-30T04:05:59;24.60;;;12.80;;
73678;SDS011;61978;52.742;16.962;2023-07-30T04:08:26;24.00;;;13.50;;
73678;SDS011;61978;52.742;16.962;2023-07-30T04:10:55;29.00;;;13.50;;
73678;SDS011;61978;52.742;16.962;2023-07-30T04:15:04;23.70;;;14.00;;
73678;SDS011;61978;52.742;16.962;2023-07-30T04:17:30;26.00;;;14.90;;
73678;SDS011;61978;52.742;16.962;2023-07-30T04:19:56;21.50;;;14.10;;
73678;SDS011;61978;52.742;16.962;2023-07-30T04:22:21;29.60;;;14.00;;
73678;SDS011;61978;52.742;16.962;2023-07-30T04:24:47;21.20;;;13.00;;
73678;SDS011;61978;52.742;16.962;2023-07-30T04:27:13;25.30;;;12.90;;
73678;SDS011;61978;52.742;16.962;2023-07-30T04:29:39;19.40;;;12.80;;
73678;SDS011;61978;52.742;16.962;2023-07-30T04:32:05;31.90;;;15.00;;
73678;SDS011;61978;52.742;16.962;2023-07-30T04:34:30;22.60;;;13.60;;
73678;SDS011;61978;52.742;16.962;2023-07-30T04:36:56;24.10;;;13.90;;
73678;SDS011;61978;52.742;16.962;2023-07-30T04:39:22;23.80;;;13.50;;
73678;SDS011;61978;52.742;16.962;2023-07-30T04:41:47;21.50;;;13.10;;
73678;SDS011;61978;52.742;16.962;2023-07-30T04:44:13;22.30;;;13.30;;
73678;SDS011;61978;52.742;16.962;2023-07-30T04:46:39;16.80;;;12.60;;
73678;SDS011;61978;52.742;16.962;2023-07-30T04:49:05;22.30;;;14.50;;
73678;SDS011;61978;52.742;16.962;2023-07-30T04:51:31;19.40;;;14.00;;
73678;SDS011;61978;52.742;16.962;2023-07-30T04:53:57;20.10;;;13.20;;
73678;SDS011;61978;52.742;16.962;2023-07-30T04:56:22;22.30;;;13.20;;
73678;SDS011;61978;52.742;16.962;2023-07-30T04:58:48;21.20;;;13.00;;
73678;SDS011;61978;52.742;16.962;2023-07-30T05:01:13;14.30;;;11.90;;
73678;SDS011;61978;52.742;16.962;2023-07-30T05:03:39;21.60;;;13.60;;
73678;SDS011;61978;52.742;16.962;2023-07-30T05:06:05;21.70;;;13.60;;
73678;SDS011;61978;52.742;16.962;2023-07-30T05:08:30;21.50;;;13.70;;
73678;SDS011;61978;52.742;16.962;2023-07-30T05:10:56;16.40;;;13.10;;
73678;SDS011;61978;52.742;16.962;2023-07-30T05:13:21;16.70;;;13.20;;
73678;SDS011;61978;52.742;16.962;2023-07-30T05:15:47;15.00;;;12.40;;
73678;SDS011;61978;52.742;16.962;2023-07-30T05:18:13;17.60;;;12.40;;
73678;SDS011;61978;52.742;16.962;2023-07-30T05:20:39;17.60;;;10.40;;
73678;SDS011;61978;52.742;16.962;2023-07-30T05:23:04;16.00;;;10.20;;
73678;SDS011;61978;52.742;16.962;2023-07-30T05:25:32;17.90;;;11.50;;
73678;SDS011;61978;52.742;16.962;2023-07-30T05:27:57;16.00;;;12.10;;
73678;SDS011;61978;52.742;16.962;2023-07-30T05:30:23;14.20;;;11.20;;
73678;SDS011;61978;52.742;16.962;2023-07-30T05:32:49;14.40;;;12.40;;
73678;SDS011;61978;52.742;16.962;2023-07-30T05:35:15;13.60;;;10.30;;
73678;SDS011;61978;52.742;16.962;2023-07-30T05:37:41;13.30;;;9.80;;
73678;SDS011;61978;52.742;16.962;2023-07-30T05:40:06;17.90;;;10.50;;
73678;SDS011;61978;52.742;16.962;2023-07-30T05:42:32;13.20;;;9.60;;
73678;SDS011;61978;52.742;16.962;2023-07-30T05:44:58;14.00;;;10.00;;
73678;SDS011;61978;52.742;16.962;2023-07-30T05:47:23;11.50;;;9.50;;
73678;SDS011;61978;52.742;16.962;2023-07-30T05:49:49;14.50;;;10.50;;
73678;SDS011;61978;52.742;16.962;2023-07-30T05:52:15;15.10;;;12.00;;
73678;SDS011;61978;52.742;16.962;2023-07-30T05:54:40;13.80;;;10.90;;
73678;SDS011;61978;52.742;16.962;2023-07-30T05:57:06;16.60;;;12.20;;
73678;SDS011;61978;52.742;16.962;2023-07-30T05:59:31;14.80;;;12.90;;
73678;SDS011;61978;52.742;16.962;2023-07-30T06:01:57;21.60;;;13.40;;
73678;SDS011;61978;52.742;16.962;2023-07-30T06:04:27;14.60;;;12.80;;
73678;SDS011;61978;52.742;16.962;2023-07-30T06:06:53;17.00;;;14.50;;
73678;SDS011;61978;52.742;16.962;2023-07-30T06:09:18;17.60;;;13.10;;
73678;SDS011;61978;52.742;16.962;2023-07-30T06:11:44;21.50;;;14.00;;
73678;SDS011;61978;52.742;16.962;2023-07-30T06:14:10;18.50;;;14.00;;
73678;SDS011;61978;52.742;16.962;2023-07-30T06:16:35;17.20;;;13.60;;
73678;SDS011;61978;52.742;16.962;2023-07-30T06:19:01;18.20;;;13.40;;
73678;SDS011;61978;52.742;16.962;2023-07-30T06:21:27;16.10;;;12.10;;
73678;SDS011;61978;52.742;16.962;2023-07-30T06:23:52;14.10;;;12.10;;
73678;SDS011;61978;52.742;16.962;2023-07-30T06:26:18;12.30;;;11.10;;
73678;SDS011;61978;52.742;16.962;2023-07-30T06:28:44;15.20;;;11.80;;
73678;SDS011;61978;52.742;16.962;2023-07-30T06:31:09;15.50;;;12.70;;
73678;SDS011;61978;52.742;16.962;2023-07-30T06:33:35;16.40;;;12.50;;
73678;SDS011;61978;52.742;16.962;2023-07-30T06:36:03;13.80;;;12.30;;
73678;SDS011;61978;52.742;16.962;2023-07-30T06:38:28;16.60;;;12.80;;
73678;SDS011;61978;52.742;16.962;2023-07-30T06:40:54;16.90;;;12.80;;
73678;SDS011;61978;52.742;16.962;2023-07-30T06:43:24;15.30;;;12.10;;
73678;SDS011;61978;52.742;16.962;2023-07-30T06:45:49;14.20;;;12.40;;
73678;SDS011;61978;52.742;16.962;2023-07-30T06:48:15;13.60;;;12.20;;
73678;SDS011;61978;52.742;16.962;2023-07-30T06:50:41;16.40;;;14.00;;
73678;SDS011;61978;52.742;16.962;2023-07-30T06:53:07;16.00;;;12.20;;
73678;SDS011;61978;52.742;16.962;2023-07-30T06:55:32;15.80;;;13.70;;
73678;SDS011;61978;52.742;16.962;2023-07-30T06:57:58;14.30;;;12.80;;
73678;SDS011;61978;52.742;16.962;2023-07-30T07:00:24;21.80;;;13.40;;
73678;SDS011;61978;52.742;16.962;2023-07-30T07:02:50;17.60;;;13.00;;
73678;SDS011;61978;52.742;16.962;2023-07-30T07:05:16;16.20;;;13.50;;
73678;SDS011;61978;52.742;16.962;2023-07-30T07:07:41;16.40;;;12.50;;
73678;SDS011;61978;52.742;16.962;2023-07-30T07:10:07;18.30;;;13.20;;
73678;SDS011;61978;52.742;16.962;2023-07-30T07:12:33;13.80;;;11.90;;
73678;SDS011;61978;52.742;16.962;2023-07-30T07:14:59;18.80;;;13.00;;
73678;SDS011;61978;52.742;16.962;2023-07-30T07:17:27;21.40;;;13.30;;
73678;SDS011;61978;52.742;16.962;2023-07-30T07:19:52;13.90;;;11.40;;
73678;SDS011;61978;52.742;16.962;2023-07-30T07:22:18;17.90;;;10.60;;
73678;SDS011;61978;52.742;16.962;2023-07-30T07:24:44;14.40;;;12.90;;
73678;SDS011;61978;52.742;16.962;2023-07-30T07:27:09;13.40;;;11.90;;
73678;SDS011;61978;52.742;16.962;2023-07-30T07:29:35;18.50;;;12.90;;
73678;SDS011;61978;52.742;16.962;2023-07-30T07:32:01;14.60;;;13.10;;
73678;SDS011;61978;52.742;16.962;2023-07-30T07:34:27;13.60;;;12.20;;
73678;SDS011;61978;52.742;16.962;2023-07-30T07:36:53;16.70;;;12.60;;
73678;SDS011;61978;52.742;16.962;2023-07-30T07:39:19;15.10;;;11.20;;
73678;SDS011;61978;52.742;16.962;2023-07-30T07:41:52;12.40;;;11.20;;
73678;SDS011;61978;52.742;16.962;2023-07-30T07:44:18;12.30;;;10.00;;
73678;SDS011;61978;52.742;16.962;2023-07-30T07:46:44;11.30;;;9.60;;
73678;SDS011;61978;52.742;16.962;2023-07-30T07:49:09;11.30;;;9.80;;
73678;SDS011;61978;52.742;16.962;2023-07-30T07:51:35;11.90;;;10.10;;
73678;SDS011;61978;52.742;16.962;2023-07-30T07:54:01;11.20;;;10.00;;
73678;SDS011;61978;52.742;16.962;2023-07-30T07:56:26;12.60;;;9.80;;
73678;SDS011;61978;52.742;16.962;2023-07-30T07:58:52;12.60;;;9.00;;
73678;SDS011;61978;52.742;16.962;2023-07-30T08:01:21;14.20;;;9.50;;
73678;SDS011;61978;52.742;16.962;2023-07-30T08:03:46;11.50;;;8.40;;
73678;SDS011;61978;52.742;16.962;2023-07-30T08:06:12;14.10;;;9.10;;
73678;SDS011;61978;52.742;16.962;2023-07-30T08:11:29;9.50;;;8.70;;
73678;SDS011;61978;52.742;16.962;2023-07-30T08:13:55;9.20;;;8.40;;
73678;SDS011;61978;52.742;16.962;2023-07-30T08:16:25;11.80;;;7.00;;
73678;SDS011;61978;52.742;16.962;2023-07-30T08:18:52;9.70;;;6.80;;
73678;SDS011;61978;52.742;16.962;2023-07-30T08:21:18;6.50;;;5.80;;
73678;SDS011;61978;52.742;16.962;2023-07-30T08:23:45;8.80;;;6.20;;
73678;SDS011;61978;52.742;16.962;2023-07-30T08:26:13;6.70;;;6.00;;
73678;SDS011;61978;52.742;16.962;2023-07-30T08:28:38;8.00;;;6.00;;
73678;SDS011;61978;52.742;16.962;2023-07-30T08:31:12;6.60;;;6.00;;
73678;SDS011;61978;52.742;16.962;2023-07-30T08:33:44;5.50;;;4.90;;
73678;SDS011;61978;52.742;16.962;2023-07-30T08:36:10;8.50;;;5.00;;
73678;SDS011;61978;52.742;16.962;2023-07-30T08:38:42;5.20;;;4.70;;
73678;SDS011;61978;52.742;16.962;2023-07-30T08:41:11;7.40;;;5.40;;
73678;SDS011;61978;52.742;16.962;2023-07-30T08:43:37;5.80;;;5.00;;
73678;SDS011;61978;52.742;16.962;2023-07-30T08:46:03;5.50;;;4.50;;
73678;SDS011;61978;52.742;16.962;2023-07-30T08:48:29;7.10;;;3.90;;
73678;SDS011;61978;52.742;16.962;2023-07-30T08:50:58;5.80;;;3.70;;
73678;SDS011;61978;52.742;16.962;2023-07-30T08:53:25;4.40;;;3.80;;
73678;SDS011;61978;52.742;16.962;2023-07-30T08:55:53;4.30;;;3.90;;
73678;SDS011;61978;52.742;16.962;2023-07-30T08:58:21;6.30;;;3.50;;
73678;SDS011;61978;52.742;16.962;2023-07-30T09:00:48;5.20;;;3.70;;
73678;SDS011;61978;52.742;16.962;2023-07-30T09:03:15;7.90;;;4.10;;
73678;SDS011;61978;52.742;16.962;2023-07-30T09:05:43;3.40;;;2.70;;
73678;SDS011;61978;52.742;16.962;2023-07-30T09:08:08;6.00;;;3.50;;
73678;SDS011;61978;52.742;16.962;2023-07-30T09:10:35;4.90;;;3.60;;
73678;SDS011;61978;52.742;16.962;2023-07-30T09:13:05;3.40;;;3.10;;
73678;SDS011;61978;52.742;16.962;2023-07-30T09:15:40;2.70;;;2.40;;
73678;SDS011;61978;52.742;16.962;2023-07-30T09:18:07;7.00;;;3.50;;
73678;SDS011;61978;52.742;16.962;2023-07-30T09:20:36;3.60;;;2.60;;
73678;SDS011;61978;52.742;16.962;2023-07-30T09:23:11;3.90;;;2.60;;
73678;SDS011;61978;52.742;16.962;2023-07-30T09:25:38;5.90;;;2.70;;
73678;SDS011;61978;52.742;16.962;2023-07-30T09:28:10;3.00;;;2.20;;
73678;SDS011;61978;52.742;16.962;2023-07-30T09:30:45;4.50;;;2.70;;
73678;SDS011;61978;52.742;16.962;2023-07-30T09:33:18;2.80;;;2.10;;
73678;SDS011;61978;52.742;16.962;2023-07-30T09:35:44;2.60;;;2.10;;
73678;SDS011;61978;52.742;16.962;2023-07-30T09:38:10;3.00;;;2.40;;
73678;SDS011;61978;52.742;16.962;2023-07-30T09:43:17;2.80;;;2.10;;
73678;SDS011;61978;52.742;16.962;2023-07-30T09:45:44;5.60;;;1.90;;
73678;SDS011;61978;52.742;16.962;2023-07-30T09:48:10;5.20;;;2.20;;
73678;SDS011;61978;52.742;16.962;2023-07-30T09:50:37;3.50;;;2.30;;
73678;SDS011;61978;52.742;16.962;2023-07-30T09:53:03;3.10;;;2.40;;
73678;SDS011;61978;52.742;16.962;2023-07-30T09:55:30;7.30;;;2.40;;
73678;SDS011;61978;52.742;16.962;2023-07-30T09:57:56;2.80;;;2.50;;
73678;SDS011;61978;52.742;16.962;2023-07-30T10:00:24;5.40;;;2.40;;
73678;SDS011;61978;52.742;16.962;2023-07-30T10:02:50;2.30;;;2.10;;
73678;SDS011;61978;52.742;16.962;2023-07-30T10:05:23;2.90;;;1.70;;
73678;SDS011;61978;52.742;16.962;2023-07-30T10:07:58;12.40;;;2.20;;
73678;SDS011;61978;52.742;16.962;2023-07-30T10:10:25;7.20;;;1.90;;
73678;SDS011;61978;52.742;16.962;2023-07-30T10:12:53;2.20;;;1.50;;
73678;SDS011;61978;52.742;16.962;2023-07-30T10:15:28;1.90;;;1.70;;
73678;SDS011;61978;52.742;16.962;2023-07-30T10:17:56;1.70;;;1.60;;
73678;SDS011;61978;52.742;16.962;2023-07-30T10:20:26;3.00;;;1.80;;
73678;SDS011;61978;52.742;16.962;2023-07-30T10:23:07;7.80;;;1.60;;
73678;SDS011;61978;52.742;16.962;2023-07-30T10:28:32;1.40;;;1.30;;
73678;SDS011;61978;52.742;16.962;2023-07-30T10:31:04;4.10;;;1.60;;
73678;SDS011;61978;52.742;16.962;2023-07-30T10:36:12;3.50;;;1.80;;
73678;SDS011;61978;52.742;16.962;2023-07-30T10:38:38;4.00;;;1.30;;
73678;SDS011;61978;52.742;16.962;2023-07-30T10:41:08;3.50;;;1.30;;
73678;SDS011;61978;52.742;16.962;2023-07-30T10:43:36;4.20;;;1.50;;
73678;SDS011;61978;52.742;16.962;2023-07-30T10:46:03;3.10;;;1.30;;
73678;SDS011;61978;52.742;16.962;2023-07-30T10:48:30;1.50;;;1.40;;
73678;SDS011;61978;52.742;16.962;2023-07-30T10:50:56;4.10;;;1.60;;
73678;SDS011;61978;52.742;16.962;2023-07-30T10:53:22;2.90;;;1.30;;
73678;SDS011;61978;52.742;16.962;2023-07-30T10:55:48;1.50;;;1.40;;
73678;SDS011;61978;52.742;16.962;2023-07-30T10:58:24;3.40;;;1.70;;
73678;SDS011;61978;52.742;16.962;2023-07-30T11:00:51;1.80;;;1.50;;
73678;SDS011;61978;52.742;16.962;2023-07-30T11:03:17;2.90;;;1.40;;
73678;SDS011;61978;52.742;16.962;2023-07-30T11:05:51;4.10;;;1.70;;
73678;SDS011;61978;52.742;16.962;2023-07-30T11:08:17;3.00;;;1.60;;
73678;SDS011;61978;52.742;16.962;2023-07-30T11:10:46;2.00;;;1.80;;
73678;SDS011;61978;52.742;16.962;2023-07-30T11:13:13;1.50;;;1.30;;
73678;SDS011;61978;52.742;16.962;2023-07-30T11:15:43;3.30;;;2.10;;
73678;SDS011;61978;52.742;16.962;2023-07-30T11:18:21;3.80;;;1.40;;
73678;SDS011;61978;52.742;16.962;2023-07-30T11:20:50;5.10;;;1.40;;
73678;SDS011;61978;52.742;16.962;2023-07-30T11:23:24;3.30;;;1.50;;
73678;SDS011;61978;52.742;16.962;2023-07-30T11:25:50;1.70;;;1.60;;
73678;SDS011;61978;52.742;16.962;2023-07-30T11:28:32;3.30;;;1.80;;
73678;SDS011;61978;52.742;16.962;2023-07-30T11:31:06;3.00;;;1.50;;
73678;SDS011;61978;52.742;16.962;2023-07-30T11:33:35;4.60;;;1.20;;
73678;SDS011;61978;52.742;16.962;2023-07-30T11:36:02;2.30;;;1.40;;
73678;SDS011;61978;52.742;16.962;2023-07-30T11:38:28;3.90;;;1.70;;
73678;SDS011;61978;52.742;16.962;2023-07-30T11:40:56;2.00;;;1.30;;
73678;SDS011;61978;52.742;16.962;2023-07-30T11:43:36;2.30;;;1.50;;
73678;SDS011;61978;52.742;16.962;2023-07-30T11:46:13;2.10;;;1.40;;
73678;SDS011;61978;52.742;16.962;2023-07-30T11:48:43;1.60;;;1.40;;
73678;SDS011;61978;52.742;16.962;2023-07-30T11:51:22;2.50;;;1.30;;
73678;SDS011;61978;52.742;16.962;2023-07-30T11:54:00;2.10;;;1.90;;
73678;SDS011;61978;52.742;16.962;2023-07-30T11:56:31;2.50;;;1.60;;
73678;SDS011;61978;52.742;16.962;2023-07-30T11:59:16;1.60;;;1.50;;
73678;SDS011;61978;52.742;16.962;2023-07-30T12:01:45;1.70;;;1.40;;
73678;SDS011;61978;52.742;16.962;2023-07-30T12:04:14;3.50;;;1.40;;
73678;SDS011;61978;52.742;16.962;2023-07-30T12:06:49;1.60;;;1.50;;
73678;SDS011;61978;52.742;16.962;2023-07-30T12:09:26;2.20;;;1.20;;
73678;SDS011;61978;52.742;16.962;2023-07-30T12:11:53;2.60;;;1.80;;
73678;SDS011;61978;52.742;16.962;2023-07-30T12:14:21;2.50;;;1.80;;
73678;SDS011;61978;52.742;16.962;2023-07-30T12:19:37;6.90;;;1.90;;
73678;SDS011;61978;52.742;16.962;2023-07-30T12:22:07;2.70;;;2.00;;
73678;SDS011;61978;52.742;16.962;2023-07-30T12:24:32;2.90;;;2.60;;
73678;SDS011;61978;52.742;16.962;2023-07-30T12:26:59;3.30;;;1.70;;
73678;SDS011;61978;52.742;16.962;2023-07-30T12:29:25;2.60;;;1.80;;
73678;SDS011;61978;52.742;16.962;2023-07-30T12:31:51;2.30;;;2.00;;
73678;SDS011;61978;52.742;16.962;2023-07-30T12:34:22;3.50;;;2.10;;
73678;SDS011;61978;52.742;16.962;2023-07-30T12:36:48;4.00;;;2.20;;
73678;SDS011;61978;52.742;16.962;2023-07-30T12:39:35;3.10;;;1.60;;
73678;SDS011;61978;52.742;16.962;2023-07-30T12:42:35;3.60;;;1.90;;
73678;SDS011;61978;52.742;16.962;2023-07-30T12:47:54;2.00;;;1.60;;
73678;SDS011;61978;52.742;16.962;2023-07-30T12:50:33;1.50;;;1.40;;
73678;SDS011;61978;52.742;16.962;2023-07-30T12:53:14;2.90;;;1.80;;
73678;SDS011;61978;52.742;16.962;2023-07-30T12:56:05;1.10;;;1.10;;
73678;SDS011;61978;52.742;16.962;2023-07-30T13:15:13;1.60;;;1.10;;
73678;SDS011;61978;52.742;16.962;2023-07-30T13:17:39;3.70;;;1.30;;
73678;SDS011;61978;52.742;16.962;2023-07-30T13:20:05;2.00;;;1.20;;
73678;SDS011;61978;52.742;16.962;2023-07-30T13:22:32;6.50;;;1.30;;
73678;SDS011;61978;52.742;16.962;2023-07-30T13:24:58;4.80;;;1.10;;
73678;SDS011;61978;52.742;16.962;2023-07-30T13:27:23;4.10;;;1.20;;
73678;SDS011;61978;52.742;16.962;2023-07-30T13:29:49;1.90;;;1.20;;
73678;SDS011;61978;52.742;16.962;2023-07-30T13:32:15;1.30;;;1.10;;
73678;SDS011;61978;52.742;16.962;2023-07-30T13:34:41;1.40;;;1.10;;
73678;SDS011;61978;52.742;16.962;2023-07-30T13:37:06;1.30;;;1.10;;
73678;SDS011;61978;52.742;16.962;2023-07-30T13:39:39;1.40;;;1.20;;
73678;SDS011;61978;52.742;16.962;2023-07-30T13:42:05;1.30;;;1.10;;
73678;SDS011;61978;52.742;16.962;2023-07-30T13:44:31;2.40;;;1.00;;
73678;SDS011;61978;52.742;16.962;2023-07-30T13:46:57;1.40;;;0.80;;
73678;SDS011;61978;52.742;16.962;2023-07-30T15:17:11;8.30;;;1.20;;
73678;SDS011;61978;52.742;16.962;2023-07-30T19:05:02;5.70;;;2.50;;
